sensor_id;sensor_type;location;lat;lon;timestamp;temperature;humidity
37896;DHT22;23733;53.254;10.430;2023-04-29T00:01:19;9.50;99.90
37896;DHT22;23733;53.254;10.430;2023-04-29T00:03:45;9.50;99.90
37896;DHT22;23733;53.254;10.430;2023-04-29T00:06:12;9.50;99.90
37896;DHT22;23733;53.254;10.430;2023-04-29T00:08:38;9.40;99.90
37896;DHT22;23733;53.254;10.430;2023-04-29T00:11:04;9.40;99.90
37896;DHT22;23733;53.254;10.430;2023-04-29T00:13:30;9.40;99.90
37896;DHT22;23733;53.254;10.430;2023-04-29T00:15:56;9.40;99.90
37896;DHT22;23733;53.254;10.430;2023-04-29T00:18:22;9.40;99.90
37896;DHT22;23733;53.254;10.430;2023-04-29T00:20:48;9.40;99.90
37896;DHT22;23733;53.254;10.430;2023-04-29T00:23:14;9.30;99.90
37896;DHT22;23733;53.254;10.430;2023-04-29T00:25:40;9.30;99.90
37896;DHT22;23733;53.254;10.430;2023-04-29T00:28:06;9.30;99.90
37896;DHT22;23733;53.254;10.430;2023-04-29T00:30:32;9.30;99.90
37896;DHT22;23733;53.254;10.430;2023-04-29T00:32:59;9.30;99.90
37896;DHT22;23733;53.254;10.430;2023-04-29T00:35:25;9.30;99.90
37896;DHT22;23733;53.254;10.430;2023-04-29T00:37:51;9.30;99.90
37896;DHT22;23733;53.254;10.430;2023-04-29T00:40:17;9.30;99.90
37896;DHT22;23733;53.254;10.430;2023-04-29T00:42:43;9.20;99.90
37896;DHT22;23733;53.254;10.430;2023-04-29T00:45:09;9.20;99.90
37896;DHT22;23733;53.254;10.430;2023-04-29T00:47:37;9.20;99.90
37896;DHT22;23733;53.254;10.430;2023-04-29T00:50:05;9.20;99.90
37896;DHT22;23733;53.254;10.430;2023-04-29T00:52:31;9.10;99.90
37896;DHT22;23733;53.254;10.430;2023-04-29T00:54:58;9.10;99.90
37896;DHT22;23733;53.254;10.430;2023-04-29T00:59:56;9.10;99.90
37896;DHT22;23733;53.254;10.430;2023-04-29T01:02:23;9.10;99.90
37896;DHT22;23733;53.254;10.430;2023-04-29T01:04:50;9.10;99.90
37896;DHT22;23733;53.254;10.430;2023-04-29T01:07:23;9.00;99.90
37896;DHT22;23733;53.254;10.430;2023-04-29T01:12:40;9.00;99.90
37896;DHT22;23733;53.254;10.430;2023-04-29T01:15:09;9.10;99.90
37896;DHT22;23733;53.254;10.430;2023-04-29T01:17:47;9.00;99.90
37896;DHT22;23733;53.254;10.430;2023-04-29T01:20:15;9.00;99.90
37896;DHT22;23733;53.254;10.430;2023-04-29T01:22:42;9.00;99.90
37896;DHT22;23733;53.254;10.430;2023-04-29T01:25:08;9.00;99.90
37896;DHT22;23733;53.254;10.430;2023-04-29T01:28:02;8.90;99.90
37896;DHT22;23733;53.254;10.430;2023-04-29T01:33:43;8.90;99.90
37896;DHT22;23733;53.254;10.430;2023-04-29T01:36:43;8.90;99.90
37896;DHT22;23733;53.254;10.430;2023-04-29T01:39:40;8.90;99.90
37896;DHT22;23733;53.254;10.430;2023-04-29T01:42:34;8.90;99.90
37896;DHT22;23733;53.254;10.430;2023-04-29T01:45:05;9.00;99.90
37896;DHT22;23733;53.254;10.430;2023-04-29T01:47:32;9.00;99.90
37896;DHT22;23733;53.254;10.430;2023-04-29T01:49:58;9.00;99.90
37896;DHT22;23733;53.254;10.430;2023-04-29T01:52:24;9.00;99.90
37896;DHT22;23733;53.254;10.430;2023-04-29T01:54:50;8.90;99.90
37896;DHT22;23733;53.254;10.430;2023-04-29T01:57:16;8.90;99.90
37896;DHT22;23733;53.254;10.430;2023-04-29T02:02:08;8.90;99.90
37896;DHT22;23733;53.254;10.430;2023-04-29T02:04:35;8.90;99.90
37896;DHT22;23733;53.254;10.430;2023-04-29T02:07:01;8.90;99.90
37896;DHT22;23733;53.254;10.430;2023-04-29T02:09:27;8.90;99.90
37896;DHT22;23733;53.254;10.430;2023-04-29T02:11:53;8.90;99.90
37896;DHT22;23733;53.254;10.430;2023-04-29T02:14:19;8.90;99.90
37896;DHT22;23733;53.254;10.430;2023-04-29T02:16:45;8.90;99.90
37896;DHT22;23733;53.254;10.430;2023-04-29T02:19:11;8.90;99.90
37896;DHT22;23733;53.254;10.430;2023-04-29T02:21:37;8.90;99.90
37896;DHT22;23733;53.254;10.430;2023-04-29T02:24:05;9.00;99.90
37896;DHT22;23733;53.254;10.430;2023-04-29T02:26:31;9.00;99.90
37896;DHT22;23733;53.254;10.430;2023-04-29T02:31:25;8.90;99.90
37896;DHT22;23733;53.254;10.430;2023-04-29T02:51:01;8.90;99.90
37896;DHT22;23733;53.254;10.430;2023-04-29T02:58:20;8.90;99.90
37896;DHT22;23733;53.254;10.430;2023-04-29T03:00:46;8.90;99.90
37896;DHT22;23733;53.254;10.430;2023-04-29T03:03:12;9.00;99.90
37896;DHT22;23733;53.254;10.430;2023-04-29T03:08:05;9.00;99.90
37896;DHT22;23733;53.254;10.430;2023-04-29T03:34:55;9.00;99.90
37896;DHT22;23733;53.254;10.430;2023-04-29T03:37:22;9.00;99.90
37896;DHT22;23733;53.254;10.430;2023-04-29T03:39:48;9.00;99.90
37896;DHT22;23733;53.254;10.430;2023-04-29T03:42:14;8.90;99.90
37896;DHT22;23733;53.254;10.430;2023-04-29T03:44:40;8.90;99.90
37896;DHT22;23733;53.254;10.430;2023-04-29T03:47:06;8.90;99.90
37896;DHT22;23733;53.254;10.430;2023-04-29T03:49:33;8.90;99.90
37896;DHT22;23733;53.254;10.430;2023-04-29T03:51:59;8.90;99.90
37896;DHT22;23733;53.254;10.430;2023-04-29T03:54:25;8.90;99.90
37896;DHT22;23733;53.254;10.430;2023-04-29T05:00:23;8.90;99.90
37896;DHT22;23733;53.254;10.430;2023-04-29T05:05:15;8.70;99.90
37896;DHT22;23733;53.254;10.430;2023-04-29T05:12:35;8.70;99.90
37896;DHT22;23733;53.254;10.430;2023-04-29T05:15:01;8.70;99.90
37896;DHT22;23733;53.254;10.430;2023-04-29T05:29:42;8.70;99.90
37896;DHT22;23733;53.254;10.430;2023-04-29T06:03:51;8.60;99.90
37896;DHT22;23733;53.254;10.430;2023-04-29T06:11:10;8.50;99.90
37896;DHT22;23733;53.254;10.430;2023-04-29T06:13:36;8.60;99.90
37896;DHT22;23733;53.254;10.430;2023-04-29T06:16:03;8.50;99.90
37896;DHT22;23733;53.254;10.430;2023-04-29T06:18:29;8.50;99.90
37896;DHT22;23733;53.254;10.430;2023-04-29T06:20:55;8.50;99.90
37896;DHT22;23733;53.254;10.430;2023-04-29T06:23:21;8.50;99.90
37896;DHT22;23733;53.254;10.430;2023-04-29T06:25:47;8.50;99.90
37896;DHT22;23733;53.254;10.430;2023-04-29T06:28:13;8.60;99.90
37896;DHT22;23733;53.254;10.430;2023-04-29T06:30:39;8.60;99.90
37896;DHT22;23733;53.254;10.430;2023-04-29T06:33:05;8.60;99.90
37896;DHT22;23733;53.254;10.430;2023-04-29T06:35:31;8.60;99.90
37896;DHT22;23733;53.254;10.430;2023-04-29T06:37:57;8.70;99.90
37896;DHT22;23733;53.254;10.430;2023-04-29T06:40:23;8.80;99.90
37896;DHT22;23733;53.254;10.430;2023-04-29T06:42:49;8.80;99.90
37896;DHT22;23733;53.254;10.430;2023-04-29T06:45:17;8.90;99.90
37896;DHT22;23733;53.254;10.430;2023-04-29T06:47:43;8.90;99.90
37896;DHT22;23733;53.254;10.430;2023-04-29T06:50:09;8.90;99.90
37896;DHT22;23733;53.254;10.430;2023-04-29T06:52:35;8.90;99.90
37896;DHT22;23733;53.254;10.430;2023-04-29T06:55:01;9.00;99.90
37896;DHT22;23733;53.254;10.430;2023-04-29T06:57:28;9.00;99.90
37896;DHT22;23733;53.254;10.430;2023-04-29T07:04:46;9.10;99.90
37896;DHT22;23733;53.254;10.430;2023-04-29T07:12:07;9.30;99.90
37896;DHT22;23733;53.254;10.430;2023-04-29T07:14:33;9.50;99.90
37896;DHT22;23733;53.254;10.430;2023-04-29T07:16:59;9.60;99.90
37896;DHT22;23733;53.254;10.430;2023-04-29T07:19:25;9.70;99.90
37896;DHT22;23733;53.254;10.430;2023-04-29T07:21:51;9.80;99.90
37896;DHT22;23733;53.254;10.430;2023-04-29T07:24:18;9.90;99.90
37896;DHT22;23733;53.254;10.430;2023-04-29T07:26:44;9.90;99.90
37896;DHT22;23733;53.254;10.430;2023-04-29T08:47:35;9.90;99.90
37896;DHT22;23733;53.254;10.430;2023-04-29T08:50:03;12.00;99.90
37896;DHT22;23733;53.254;10.430;2023-04-29T08:52:33;12.10;99.90
37896;DHT22;23733;53.254;10.430;2023-04-29T08:54:59;12.10;99.90
37896;DHT22;23733;53.254;10.430;2023-04-29T08:57:29;12.10;99.90
37896;DHT22;23733;53.254;10.430;2023-04-29T08:59:58;12.20;99.90
37896;DHT22;23733;53.254;10.430;2023-04-29T09:02:25;12.30;99.90
37896;DHT22;23733;53.254;10.430;2023-04-29T09:04:57;12.30;99.90
37896;DHT22;23733;53.254;10.430;2023-04-29T09:07:25;12.40;99.90
37896;DHT22;23733;53.254;10.430;2023-04-29T09:09:52;12.50;99.90
37896;DHT22;23733;53.254;10.430;2023-04-29T09:12:18;12.60;99.90
37896;DHT22;23733;53.254;10.430;2023-04-29T09:14:44;12.70;99.90
37896;DHT22;23733;53.254;10.430;2023-04-29T09:17:10;12.70;99.90
37896;DHT22;23733;53.254;10.430;2023-04-29T09:19:36;12.80;99.90
37896;DHT22;23733;53.254;10.430;2023-04-29T09:22:03;12.90;99.90
37896;DHT22;23733;53.254;10.430;2023-04-29T09:24:30;12.90;99.90
37896;DHT22;23733;53.254;10.430;2023-04-29T09:26:57;13.00;99.90
37896;DHT22;23733;53.254;10.430;2023-04-29T09:29:24;13.10;99.90
37896;DHT22;23733;53.254;10.430;2023-04-29T09:31:50;13.10;99.90
37896;DHT22;23733;53.254;10.430;2023-04-29T09:34:34;13.20;99.90
37896;DHT22;23733;53.254;10.430;2023-04-29T09:37:25;13.20;99.90
37896;DHT22;23733;53.254;10.430;2023-04-29T09:39:53;13.30;99.90
37896;DHT22;23733;53.254;10.430;2023-04-29T09:42:19;13.40;99.90
37896;DHT22;23733;53.254;10.430;2023-04-29T09:44:45;13.40;99.90
37896;DHT22;23733;53.254;10.430;2023-04-29T09:47:11;13.40;99.90
37896;DHT22;23733;53.254;10.430;2023-04-29T09:49:40;13.40;99.90
37896;DHT22;23733;53.254;10.430;2023-04-29T09:52:11;13.50;99.90
37896;DHT22;23733;53.254;10.430;2023-04-29T09:54:39;13.60;99.90
37896;DHT22;23733;53.254;10.430;2023-04-29T09:57:07;13.60;99.90
37896;DHT22;23733;53.254;10.430;2023-04-29T09:59:35;13.70;99.90
37896;DHT22;23733;53.254;10.430;2023-04-29T10:02:09;13.70;99.90
37896;DHT22;23733;53.254;10.430;2023-04-29T10:04:40;13.80;99.90
37896;DHT22;23733;53.254;10.430;2023-04-29T10:07:08;13.80;99.90
37896;DHT22;23733;53.254;10.430;2023-04-29T10:09:35;13.90;99.90
37896;DHT22;23733;53.254;10.430;2023-04-29T10:12:04;13.90;99.90
37896;DHT22;23733;53.254;10.430;2023-04-29T10:14:37;14.00;99.90
37896;DHT22;23733;53.254;10.430;2023-04-29T10:17:10;14.10;99.90
37896;DHT22;23733;53.254;10.430;2023-04-29T10:19:47;14.10;99.90
37896;DHT22;23733;53.254;10.430;2023-04-29T10:22:24;14.20;99.90
37896;DHT22;23733;53.254;10.430;2023-04-29T10:24:52;14.20;99.90
37896;DHT22;23733;53.254;10.430;2023-04-29T10:27:21;14.30;99.90
37896;DHT22;23733;53.254;10.430;2023-04-29T10:29:48;14.30;99.90
37896;DHT22;23733;53.254;10.430;2023-04-29T10:32:16;14.40;99.90
37896;DHT22;23733;53.254;10.430;2023-04-29T10:34:42;14.40;99.90
37896;DHT22;23733;53.254;10.430;2023-04-29T10:37:10;14.50;99.90
37896;DHT22;23733;53.254;10.430;2023-04-29T10:39:52;14.50;99.90
37896;DHT22;23733;53.254;10.430;2023-04-29T10:42:50;14.70;99.90
37896;DHT22;23733;53.254;10.430;2023-04-29T10:45:30;14.60;99.90
37896;DHT22;23733;53.254;10.430;2023-04-29T12:19:49;14.90;99.90
37896;DHT22;23733;53.254;10.430;2023-04-29T12:22:16;15.60;99.90
37896;DHT22;23733;53.254;10.430;2023-04-29T12:24:44;15.60;99.90
37896;DHT22;23733;53.254;10.430;2023-04-29T12:27:10;15.60;99.90
37896;DHT22;23733;53.254;10.430;2023-04-29T12:29:36;15.60;99.90
37896;DHT22;23733;53.254;10.430;2023-04-29T12:32:02;15.60;99.90
37896;DHT22;23733;53.254;10.430;2023-04-29T12:34:30;15.60;99.90
37896;DHT22;23733;53.254;10.430;2023-04-29T12:37:00;15.60;99.90
37896;DHT22;23733;53.254;10.430;2023-04-29T12:39:27;15.60;99.90
37896;DHT22;23733;53.254;10.430;2023-04-29T12:41:56;15.70;99.90
37896;DHT22;23733;53.254;10.430;2023-04-29T12:44:23;15.70;99.90
37896;DHT22;23733;53.254;10.430;2023-04-29T12:46:50;15.60;99.90
37896;DHT22;23733;53.254;10.430;2023-04-29T12:49:17;15.70;99.90
37896;DHT22;23733;53.254;10.430;2023-04-29T12:51:44;15.90;99.90
37896;DHT22;23733;53.254;10.430;2023-04-29T14:56:19;15.90;99.90
37896;DHT22;23733;53.254;10.430;2023-04-29T14:58:45;15.30;99.90
37896;DHT22;23733;53.254;10.430;2023-04-29T15:01:11;15.20;99.90
37896;DHT22;23733;53.254;10.430;2023-04-29T15:03:37;15.10;99.90
37896;DHT22;23733;53.254;10.430;2023-04-29T15:06:03;15.00;99.90
37896;DHT22;23733;53.254;10.430;2023-04-29T15:08:30;15.10;99.90
37896;DHT22;23733;53.254;10.430;2023-04-29T15:10:56;15.00;99.90
37896;DHT22;23733;53.254;10.430;2023-04-29T15:13:22;15.00;99.90
37896;DHT22;23733;53.254;10.430;2023-04-29T15:20:40;15.00;99.90
37896;DHT22;23733;53.254;10.430;2023-04-29T15:23:07;14.80;99.90
37896;DHT22;23733;53.254;10.430;2023-04-29T15:25:33;14.80;99.90
37896;DHT22;23733;53.254;10.430;2023-04-29T15:54:54;14.80;99.90
37896;DHT22;23733;53.254;10.430;2023-04-29T15:57:20;14.30;99.90
37896;DHT22;23733;53.254;10.430;2023-04-29T15:59:46;14.30;99.90
37896;DHT22;23733;53.254;10.430;2023-04-29T16:02:12;14.30;99.90
37896;DHT22;23733;53.254;10.430;2023-04-29T16:04:39;14.30;99.90
37896;DHT22;23733;53.254;10.430;2023-04-29T16:07:05;14.30;99.90
37896;DHT22;23733;53.254;10.430;2023-04-29T16:09:33;14.30;99.90
37896;DHT22;23733;53.254;10.430;2023-04-29T16:11:59;14.30;99.90
37896;DHT22;23733;53.254;10.430;2023-04-29T16:14:25;14.10;99.90
37896;DHT22;23733;53.254;10.430;2023-04-29T16:16:51;14.20;99.90
37896;DHT22;23733;53.254;10.430;2023-04-29T16:19:17;14.20;99.90
37896;DHT22;23733;53.254;10.430;2023-04-29T16:21:43;14.20;99.90
37896;DHT22;23733;53.254;10.430;2023-04-29T16:24:14;14.20;99.90
37896;DHT22;23733;53.254;10.430;2023-04-29T16:26:40;14.10;99.90
37896;DHT22;23733;53.254;10.430;2023-04-29T16:29:09;14.20;99.90
37896;DHT22;23733;53.254;10.430;2023-04-29T16:31:37;14.10;99.90
37896;DHT22;23733;53.254;10.430;2023-04-29T16:34:03;14.10;99.90
37896;DHT22;23733;53.254;10.430;2023-04-29T16:36:31;14.00;99.90
37896;DHT22;23733;53.254;10.430;2023-04-29T16:38:57;13.90;99.90
37896;DHT22;23733;53.254;10.430;2023-04-29T16:41:23;13.80;99.90
37896;DHT22;23733;53.254;10.430;2023-04-29T16:43:51;13.60;99.90
37896;DHT22;23733;53.254;10.430;2023-04-29T16:46:17;13.50;99.90
37896;DHT22;23733;53.254;10.430;2023-04-29T16:48:43;13.50;99.90
37896;DHT22;23733;53.254;10.430;2023-04-29T16:51:09;13.40;99.90
37896;DHT22;23733;53.254;10.430;2023-04-29T16:53:35;13.50;99.90
37896;DHT22;23733;53.254;10.430;2023-04-29T16:56:01;13.50;99.90
37896;DHT22;23733;53.254;10.430;2023-04-29T16:58:27;13.40;99.90
37896;DHT22;23733;53.254;10.430;2023-04-29T17:00:54;13.30;99.90
37896;DHT22;23733;53.254;10.430;2023-04-29T17:03:20;13.30;99.90
37896;DHT22;23733;53.254;10.430;2023-04-29T17:10:39;13.20;99.90
37896;DHT22;23733;53.254;10.430;2023-04-29T17:13:06;12.70;99.90
37896;DHT22;23733;53.254;10.430;2023-04-29T17:15:32;12.80;99.90
37896;DHT22;23733;53.254;10.430;2023-04-29T17:17:58;12.80;99.90
37896;DHT22;23733;53.254;10.430;2023-04-29T17:20:24;12.60;99.90
37896;DHT22;23733;53.254;10.430;2023-04-29T17:22:50;12.60;99.90
37896;DHT22;23733;53.254;10.430;2023-04-29T17:25:16;12.50;99.90
37896;DHT22;23733;53.254;10.430;2023-04-29T17:27:43;12.60;99.90
37896;DHT22;23733;53.254;10.430;2023-04-29T17:30:11;12.50;99.90
37896;DHT22;23733;53.254;10.430;2023-04-29T17:32:37;12.40;99.90
37896;DHT22;23733;53.254;10.430;2023-04-29T17:35:09;12.50;99.90
37896;DHT22;23733;53.254;10.430;2023-04-29T17:37:35;12.50;99.90
37896;DHT22;23733;53.254;10.430;2023-04-29T17:40:02;12.50;99.90
37896;DHT22;23733;53.254;10.430;2023-04-29T17:42:28;12.50;99.90
37896;DHT22;23733;53.254;10.430;2023-04-29T17:44:54;12.50;99.90
37896;DHT22;23733;53.254;10.430;2023-04-29T17:47:20;12.50;99.90
37896;DHT22;23733;53.254;10.430;2023-04-29T17:49:48;12.40;99.90
37896;DHT22;23733;53.254;10.430;2023-04-29T17:52:15;12.30;99.90
37896;DHT22;23733;53.254;10.430;2023-04-29T17:54:42;12.20;99.90
37896;DHT22;23733;53.254;10.430;2023-04-29T17:57:08;12.10;99.90
37896;DHT22;23733;53.254;10.430;2023-04-29T17:59:34;12.10;99.90
37896;DHT22;23733;53.254;10.430;2023-04-29T18:02:00;12.10;99.90
37896;DHT22;23733;53.254;10.430;2023-04-29T18:04:26;12.00;99.90
37896;DHT22;23733;53.254;10.430;2023-04-29T18:06:52;12.00;99.90
37896;DHT22;23733;53.254;10.430;2023-04-29T18:09:18;12.00;99.90
37896;DHT22;23733;53.254;10.430;2023-04-29T18:11:44;11.90;99.90
37896;DHT22;23733;53.254;10.430;2023-04-29T18:14:10;11.90;99.90
37896;DHT22;23733;53.254;10.430;2023-04-29T18:16:37;11.90;99.90
37896;DHT22;23733;53.254;10.430;2023-04-29T18:19:03;11.70;99.90
37896;DHT22;23733;53.254;10.430;2023-04-29T18:21:29;11.60;99.90
37896;DHT22;23733;53.254;10.430;2023-04-29T18:23:56;11.60;99.90
37896;DHT22;23733;53.254;10.430;2023-04-29T18:26:22;11.60;99.90
37896;DHT22;23733;53.254;10.430;2023-04-29T18:28:48;11.60;99.90
37896;DHT22;23733;53.254;10.430;2023-04-29T18:31:15;11.50;99.90
37896;DHT22;23733;53.254;10.430;2023-04-29T18:36:08;11.50;99.90
37896;DHT22;23733;53.254;10.430;2023-04-29T18:38:35;11.20;99.90
37896;DHT22;23733;53.254;10.430;2023-04-29T18:41:02;11.20;99.90
37896;DHT22;23733;53.254;10.430;2023-04-29T18:43:28;11.20;99.90
37896;DHT22;23733;53.254;10.430;2023-04-29T18:45:55;11.20;99.90
37896;DHT22;23733;53.254;10.430;2023-04-29T18:48:22;11.20;99.90
37896;DHT22;23733;53.254;10.430;2023-04-29T18:50:51;11.10;99.90
37896;DHT22;23733;53.254;10.430;2023-04-29T18:53:18;11.10;99.90
37896;DHT22;23733;53.254;10.430;2023-04-29T18:55:44;11.00;99.90
37896;DHT22;23733;53.254;10.430;2023-04-29T18:58:10;10.90;99.90
37896;DHT22;23733;53.254;10.430;2023-04-29T19:00:36;10.80;99.90
37896;DHT22;23733;53.254;10.430;2023-04-29T19:03:03;10.90;99.90
37896;DHT22;23733;53.254;10.430;2023-04-29T19:05:29;10.90;99.90
37896;DHT22;23733;53.254;10.430;2023-04-29T19:07:55;11.00;99.90
37896;DHT22;23733;53.254;10.430;2023-04-29T19:10:22;10.90;99.90
37896;DHT22;23733;53.254;10.430;2023-04-29T19:12:48;10.80;99.90
37896;DHT22;23733;53.254;10.430;2023-04-29T19:15:15;10.70;99.90
37896;DHT22;23733;53.254;10.430;2023-04-29T19:17:42;10.60;99.90
37896;DHT22;23733;53.254;10.430;2023-04-29T19:20:09;10.60;99.90
37896;DHT22;23733;53.254;10.430;2023-04-29T19:22:35;10.70;99.90
37896;DHT22;23733;53.254;10.430;2023-04-29T19:25:02;10.70;99.90
37896;DHT22;23733;53.254;10.430;2023-04-29T19:27:29;10.70;99.90
37896;DHT22;23733;53.254;10.430;2023-04-29T19:29:55;10.70;99.90
37896;DHT22;23733;53.254;10.430;2023-04-29T19:32:21;10.60;99.90
37896;DHT22;23733;53.254;10.430;2023-04-29T19:34:47;10.70;99.90
37896;DHT22;23733;53.254;10.430;2023-04-29T19:37:14;10.60;99.90
37896;DHT22;23733;53.254;10.430;2023-04-29T19:42:06;10.50;99.90
37896;DHT22;23733;53.254;10.430;2023-04-29T19:46:59;10.30;99.90
37896;DHT22;23733;53.254;10.430;2023-04-29T19:49:25;10.00;99.90
37896;DHT22;23733;53.254;10.430;2023-04-29T19:51:51;9.90;99.90
37896;DHT22;23733;53.254;10.430;2023-04-29T19:54:17;9.90;99.90
37896;DHT22;23733;53.254;10.430;2023-04-29T19:56:43;9.90;99.90
37896;DHT22;23733;53.254;10.430;2023-04-29T19:59:09;9.80;99.90
37896;DHT22;23733;53.254;10.430;2023-04-29T20:01:38;9.80;99.90
37896;DHT22;23733;53.254;10.430;2023-04-29T20:04:04;9.90;99.90
37896;DHT22;23733;53.254;10.430;2023-04-29T20:06:30;9.90;99.90
37896;DHT22;23733;53.254;10.430;2023-04-29T20:08:57;9.90;99.90
37896;DHT22;23733;53.254;10.430;2023-04-29T20:11:23;9.80;99.90
37896;DHT22;23733;53.254;10.430;2023-04-29T20:13:49;9.70;99.90
37896;DHT22;23733;53.254;10.430;2023-04-29T20:16:15;9.70;99.90
37896;DHT22;23733;53.254;10.430;2023-04-29T20:18:41;9.70;99.90
37896;DHT22;23733;53.254;10.430;2023-04-29T20:21:08;9.70;99.90
37896;DHT22;23733;53.254;10.430;2023-04-29T20:23:34;9.80;99.90
37896;DHT22;23733;53.254;10.430;2023-04-29T20:26:00;9.70;99.90
37896;DHT22;23733;53.254;10.430;2023-04-29T20:28:28;9.70;99.90
37896;DHT22;23733;53.254;10.430;2023-04-29T20:30:54;9.50;99.90
37896;DHT22;23733;53.254;10.430;2023-04-29T20:33:21;9.60;99.90
37896;DHT22;23733;53.254;10.430;2023-04-29T20:38:13;9.60;99.90
37896;DHT22;23733;53.254;10.430;2023-04-29T20:40:39;9.40;99.90
37896;DHT22;23733;53.254;10.430;2023-04-29T20:43:05;9.30;99.90
37896;DHT22;23733;53.254;10.430;2023-04-29T20:45:31;9.40;99.90
37896;DHT22;23733;53.254;10.430;2023-04-29T20:47:57;9.20;99.90
37896;DHT22;23733;53.254;10.430;2023-04-29T20:50:23;9.20;99.90
37896;DHT22;23733;53.254;10.430;2023-04-29T20:52:49;9.10;99.90
37896;DHT22;23733;53.254;10.430;2023-04-29T20:55:16;9.10;99.90
37896;DHT22;23733;53.254;10.430;2023-04-29T20:57:42;9.10;99.90
37896;DHT22;23733;53.254;10.430;2023-04-29T21:00:08;9.00;99.90
37896;DHT22;23733;53.254;10.430;2023-04-29T21:02:34;9.00;99.90
37896;DHT22;23733;53.254;10.430;2023-04-29T21:05:01;9.00;99.90
37896;DHT22;23733;53.254;10.430;2023-04-29T21:07:27;9.00;99.90
37896;DHT22;23733;53.254;10.430;2023-04-29T21:09:52;8.90;99.90
37896;DHT22;23733;53.254;10.430;2023-04-29T21:12:18;8.90;99.90
37896;DHT22;23733;53.254;10.430;2023-04-29T21:14:44;8.90;99.90
37896;DHT22;23733;53.254;10.430;2023-04-29T21:17:10;8.70;99.90
37896;DHT22;23733;53.254;10.430;2023-04-29T21:19:36;8.60;99.90
37896;DHT22;23733;53.254;10.430;2023-04-29T21:22:03;8.60;99.90
37896;DHT22;23733;53.254;10.430;2023-04-29T21:24:29;8.60;99.90
37896;DHT22;23733;53.254;10.430;2023-04-29T21:26:56;8.60;99.90
37896;DHT22;23733;53.254;10.430;2023-04-29T21:29:22;8.70;99.90
37896;DHT22;23733;53.254;10.430;2023-04-29T21:31:48;8.60;99.90
37896;DHT22;23733;53.254;10.430;2023-04-29T21:34:14;8.50;99.90
37896;DHT22;23733;53.254;10.430;2023-04-29T21:44:05;8.50;99.90
37896;DHT22;23733;53.254;10.430;2023-04-29T21:46:31;8.50;99.90
37896;DHT22;23733;53.254;10.430;2023-04-29T21:48:58;8.40;99.90
37896;DHT22;23733;53.254;10.430;2023-04-29T21:51:24;8.40;99.90
37896;DHT22;23733;53.254;10.430;2023-04-29T21:53:51;8.30;99.90
37896;DHT22;23733;53.254;10.430;2023-04-29T21:56:17;8.30;99.90
37896;DHT22;23733;53.254;10.430;2023-04-29T21:58:44;8.30;99.90
37896;DHT22;23733;53.254;10.430;2023-04-29T22:01:10;8.20;99.90
37896;DHT22;23733;53.254;10.430;2023-04-29T22:03:54;8.20;99.90
37896;DHT22;23733;53.254;10.430;2023-04-29T22:06:20;8.20;99.90
37896;DHT22;23733;53.254;10.430;2023-04-29T22:08:46;8.20;99.90
37896;DHT22;23733;53.254;10.430;2023-04-29T22:11:12;8.20;99.90
37896;DHT22;23733;53.254;10.430;2023-04-29T22:13:39;8.10;99.90
37896;DHT22;23733;53.254;10.430;2023-04-29T22:16:05;8.10;99.90
37896;DHT22;23733;53.254;10.430;2023-04-29T22:18:31;8.10;99.90
37896;DHT22;23733;53.254;10.430;2023-04-29T22:20:57;8.00;99.90
37896;DHT22;23733;53.254;10.430;2023-04-29T22:23:23;8.00;99.90
37896;DHT22;23733;53.254;10.430;2023-04-29T22:25:49;7.90;99.90
37896;DHT22;23733;53.254;10.430;2023-04-29T22:30:41;7.90;99.90
37896;DHT22;23733;53.254;10.430;2023-04-29T22:33:08;7.80;99.90
37896;DHT22;23733;53.254;10.430;2023-04-29T22:35:34;7.80;99.90
37896;DHT22;23733;53.254;10.430;2023-04-29T22:38:00;7.80;99.90
37896;DHT22;23733;53.254;10.430;2023-04-29T22:40:26;7.80;99.90
37896;DHT22;23733;53.254;10.430;2023-04-29T22:42:52;7.80;99.90
37896;DHT22;23733;53.254;10.430;2023-04-29T22:45:18;7.70;99.90
37896;DHT22;23733;53.254;10.430;2023-04-29T22:47:44;7.80;99.90
37896;DHT22;23733;53.254;10.430;2023-04-29T22:50:10;7.70;99.90
37896;DHT22;23733;53.254;10.430;2023-04-29T22:52:36;7.70;99.90
37896;DHT22;23733;53.254;10.430;2023-04-29T22:55:02;7.70;99.90
37896;DHT22;23733;53.254;10.430;2023-04-29T22:57:28;7.70;99.90
37896;DHT22;23733;53.254;10.430;2023-04-29T22:59:55;7.50;99.90
37896;DHT22;23733;53.254;10.430;2023-04-29T23:02:22;7.50;99.90
37896;DHT22;23733;53.254;10.430;2023-04-29T23:04:56;7.60;99.90
37896;DHT22;23733;53.254;10.430;2023-04-29T23:07:23;7.50;99.90
37896;DHT22;23733;53.254;10.430;2023-04-29T23:09:50;7.50;99.90
37896;DHT22;23733;53.254;10.430;2023-04-29T23:12:16;7.50;99.90
37896;DHT22;23733;53.254;10.430;2023-04-29T23:14:43;7.50;99.90
37896;DHT22;23733;53.254;10.430;2023-04-29T23:17:09;7.40;99.90
37896;DHT22;23733;53.254;10.430;2023-04-29T23:19:35;7.30;99.90
37896;DHT22;23733;53.254;10.430;2023-04-29T23:22:01;7.30;99.90
37896;DHT22;23733;53.254;10.430;2023-04-29T23:24:28;7.30;99.90
37896;DHT22;23733;53.254;10.430;2023-04-29T23:26:54;7.30;99.90
37896;DHT22;23733;53.254;10.430;2023-04-29T23:29:20;7.20;99.90
37896;DHT22;23733;53.254;10.430;2023-04-29T23:31:46;7.20;99.90
37896;DHT22;23733;53.254;10.430;2023-04-29T23:34:12;7.20;99.90
37896;DHT22;23733;53.254;10.430;2023-04-29T23:36:38;7.20;99.90
37896;DHT22;23733;53.254;10.430;2023-04-29T23:39:04;7.20;99.90
37896;DHT22;23733;53.254;10.430;2023-04-29T23:41:30;7.10;99.90
37896;DHT22;23733;53.254;10.430;2023-04-29T23:43:56;7.10;99.90
37896;DHT22;23733;53.254;10.430;2023-04-29T23:46:26;7.20;99.90
37896;DHT22;23733;53.254;10.430;2023-04-29T23:48:52;7.20;99.90
37896;DHT22;23733;53.254;10.430;2023-04-29T23:51:18;7.20;99.90
37896;DHT22;23733;53.254;10.430;2023-04-29T23:53:44;7.20;99.90
37896;DHT22;23733;53.254;10.430;2023-04-29T23:56:09;7.10;99.90
37896;DHT22;23733;53.254;10.430;2023-04-29T23:58:35;7.10;99.90
